Aérodrome :
LOGIN :

S'inscrire | Disclaimer

   EN    FR    IT 

 










Légende :    VFR   VFR Marginal   IFR   IFR Intensif   IFR Très Intensif
Visi : 
Plafond : 
>= 8 km
>= 3000ft
5 à 8 km
1000 à 3000 ft
1500m à 5 km
500 à 1000 ft
800 à 1500m
200 à 500 ft
< 800m
< 200 ft
Symboles :   Orages  Brouillard  Fortes neiges  Fortes précipitations  Vent > 20 kt
SIGMETs :   Divers  Orages  Givrage  Turbulence  Onde Orograph.  Cendres Volcan.






- Altitude de l'aérodrome : 586 ft
- Code IATA : IEV


UKKK - Zhuliany

DERNIER METAR :
  • 050330Z 19003MPS 120V240 CAVOK 13/11 Q1004 R26/70D NOSIG

METARs EXPIRÉS :
  • 050300Z 17003MPS 130V210 CAVOK 14/11 Q1004 R26/CLRD70 NOSIG
  • 050230Z 17003MPS 140V200 CAVOK 13/11 Q1004 R26/CLRD70 NOSIG
  • 050200Z 16002MPS 120V210 CAVOK 12/10 Q1004 R26/70D NOSIG
  • 050130Z 20002MPS 150V230 CAVOK 11/09 Q1004 R26/CLRD70 NOSIG
  • 050100Z VRB01MPS CAVOK 11/09 Q1004 R26/70D NOSIG

TAF TAF UKKK
Valide du 05 à 00h jusqu'au 06 à 00h UTC


042303Z 0500/0524 19005G10MPS 9999 BKN020
TEMPO 0500/0509 17007G13MPS 2100 -SHRA BR BKN005 SCT015CB
PROB40
TEMPO 0500/0509 VRB10G17MPS 1500 TSRAGR SQ BKN004 BKN015CB
TEMPO 0509/0519 VRB10G18MPS 1200 TSRAGR SQ BKN006 BKN015CB
TEMPO 0519/0524 2100 -SHRA BR BKN006 SCT015CB



MET'MAP, la Météo Aéronautique d'un coup d'oeil ! - Copyright ORBIFLY Décembre 2007 - Disclaimer

ORBIFLY MET'MAP TEAM :

Programmation & Développement : Alexandra Zaïnal
Sur une idée originale de : Baudouin d'Aumeries
Assistance à la programmation : Marc-Olivier Méhu
Soutien technique & logistique : Manuel Goepfert

Contact : metmap@orbifly.com




SOURCES & CREDITS :

   NOAA